createdAt,value
2019-04-27T00:01:57.956Z,33.23
2019-04-27T00:04:48.672Z,32.42
2019-04-27T00:07:38.456Z,49.63
2019-04-27T00:10:16.395Z,38.17
2019-04-27T00:12:45.115Z,39.98
2019-04-27T00:15:19.541Z,44.15
2019-04-27T00:18:17.710Z,41.45
2019-04-27T00:21:03.591Z,45.95
2019-04-27T00:23:34.028Z,46.75
2019-04-27T00:26:03.222Z,56.73
2019-04-27T00:28:33.195Z,37.55
2019-04-27T00:31:03.314Z,41.60
2019-04-27T00:33:33.824Z,44.10
2019-04-27T00:36:08.723Z,39.75
2019-04-27T00:39:05.179Z,45.78
2019-04-27T00:41:34.217Z,46.40
2019-04-27T00:44:03.647Z,42.95
2019-04-27T00:46:34.380Z,42.40
2019-04-27T00:51:33.390Z,47.17
2019-04-27T00:54:04.666Z,41.92
2019-04-27T00:56:59.348Z,38.15
2019-04-27T01:00:00.171Z,39.58
2019-04-27T01:02:41.157Z,46.58
2019-04-27T01:05:17.149Z,40.45
2019-04-27T01:07:45.868Z,46.18
2019-04-27T01:10:14.981Z,41.60
2019-04-27T01:12:43.924Z,41.05
2019-04-27T01:15:13.814Z,34.53
2019-04-27T01:17:42.474Z,44.18
2019-04-27T01:20:11.592Z,36.70
2019-04-27T01:22:40.138Z,45.65
2019-04-27T01:25:08.840Z,34.30
2019-04-27T01:28:00.327Z,43.45
2019-04-27T01:30:36.496Z,35.85
2019-04-27T01:33:05.026Z,44.10
2019-04-27T01:35:33.721Z,38.10
2019-04-27T01:38:02.796Z,37.17
2019-04-27T01:40:31.750Z,37.15
2019-04-27T01:43:00.107Z,30.90
2019-04-27T01:45:30.979Z,56.20
2019-04-27T01:53:00.115Z,40.30
2019-04-27T01:55:29.870Z,43.05
2019-04-27T01:57:58.746Z,33.63
2019-04-27T02:00:51.697Z,34.67
2019-04-27T02:03:25.171Z,25.77
2019-04-27T02:05:55.541Z,39.08
2019-04-27T02:08:24.663Z,31.70
2019-04-27T02:10:53.277Z,37.05
2019-04-27T02:13:21.799Z,38.92
2019-04-27T02:15:50.512Z,36.65
2019-04-27T02:18:19.846Z,44.00
2019-04-27T02:20:49.234Z,32.08
2019-04-27T02:23:19.229Z,40.50
2019-04-27T02:25:49.650Z,35.95
2019-04-27T02:31:20.033Z,42.25
2019-04-27T02:34:02.480Z,44.13
2019-04-27T02:36:30.989Z,46.73
2019-04-27T02:38:59.622Z,42.15
2019-04-27T02:41:29.780Z,39.18
2019-04-27T02:44:13.560Z,38.90
2019-04-27T02:46:42.311Z,36.40
2019-04-27T02:51:53.336Z,49.80
2019-04-27T02:54:21.764Z,32.65
2019-04-27T02:56:52.657Z,48.52
2019-04-27T02:59:20.613Z,39.55
2019-04-27T03:02:00.723Z,37.13
2019-04-27T03:04:30.389Z,37.98
2019-04-27T03:07:00.294Z,36.40
2019-04-27T03:09:30.470Z,53.63
2019-04-27T03:12:01.415Z,52.20
2019-04-27T03:14:56.229Z,37.70
2019-04-27T03:17:59.564Z,36.00
2019-04-27T03:20:50.492Z,42.50
2019-04-27T03:23:20.029Z,52.27
2019-04-27T03:26:00.347Z,45.08
2019-04-27T03:31:02.495Z,39.88
2019-04-27T03:33:32.417Z,44.65
2019-04-27T03:36:02.584Z,59.73
2019-04-27T03:38:31.421Z,43.50
2019-04-27T03:41:00.590Z,45.60
2019-04-27T03:43:30.320Z,49.40
2019-04-27T03:46:00.429Z,45.78
2019-04-27T03:48:29.952Z,48.78
2019-04-27T03:51:24.069Z,43.15
2019-04-27T03:54:10.446Z,42.60
2019-04-27T03:56:44.632Z,38.42
2019-04-27T03:59:20.259Z,51.95
2019-04-27T04:01:50.658Z,49.50
2019-04-27T04:04:19.846Z,39.90
2019-04-27T04:06:49.519Z,60.75
2019-04-27T04:09:21.095Z,47.50
2019-04-27T04:11:59.151Z,58.73
2019-04-27T04:14:30.257Z,56.67
2019-04-27T04:17:03.025Z,46.10
2019-04-27T04:19:47.918Z,50.63
2019-04-27T04:22:02.201Z,48.48
2019-04-27T04:24:31.796Z,55.03
2019-04-27T04:27:00.475Z,44.85
2019-04-27T04:29:30.796Z,48.68
2019-04-27T04:32:00.498Z,37.90
2019-04-27T04:34:30.583Z,51.05
2019-04-27T04:37:00.452Z,51.68
2019-04-27T04:39:29.727Z,48.25
2019-04-27T04:42:10.668Z,53.33
2019-04-27T04:47:36.632Z,39.05
2019-04-27T04:50:10.728Z,40.75
2019-04-27T04:52:41.815Z,46.80
2019-04-27T04:55:10.776Z,50.52
2019-04-27T04:57:39.986Z,36.35
2019-04-27T05:00:09.884Z,54.33
2019-04-27T05:02:39.815Z,53.02
2019-04-27T05:05:09.415Z,42.45
2019-04-27T05:07:38.837Z,42.23
2019-04-27T05:10:09.014Z,43.42
2019-04-27T05:12:38.696Z,55.10
2019-04-27T05:15:09.173Z,51.25
2019-04-27T05:17:39.737Z,41.58
2019-04-27T05:20:29.496Z,42.03
2019-04-27T05:22:59.405Z,55.87
2019-04-27T05:25:28.706Z,46.63
2019-04-27T05:27:57.251Z,32.98
2019-04-27T05:30:25.782Z,38.33
2019-04-27T05:32:54.181Z,37.60
2019-04-27T05:35:22.655Z,34.13
2019-04-27T05:37:51.250Z,41.18
2019-04-27T05:40:20.178Z,32.98
2019-04-27T05:42:55.082Z,29.67
2019-04-27T05:49:09.379Z,33.98
2019-04-27T05:51:40.536Z,30.17
2019-04-27T05:54:10.379Z,38.35
2019-04-27T05:56:41.049Z,59.50
2019-04-27T05:59:09.535Z,57.75
2019-04-27T06:01:39.108Z,47.17
2019-04-27T06:04:08.978Z,38.20
2019-04-27T06:06:39.705Z,36.83
2019-04-27T06:11:39.837Z,44.80
2019-04-27T06:14:09.657Z,42.83
2019-04-27T06:16:39.576Z,35.50
2019-04-27T06:19:09.580Z,57.40
2019-04-27T06:21:40.112Z,54.50
2019-04-27T06:24:09.171Z,42.43
2019-04-27T06:26:40.010Z,37.05
2019-04-27T06:31:39.634Z,41.45
2019-04-27T06:34:09.837Z,51.08
2019-04-27T06:36:38.827Z,50.70
2019-04-27T06:39:09.785Z,56.85
2019-04-27T06:41:40.009Z,45.88
2019-04-27T06:44:11.007Z,50.60
2019-04-27T06:46:40.329Z,51.02
2019-04-27T06:49:11.053Z,51.18
2019-04-27T06:54:09.300Z,60.28
2019-04-27T06:56:39.787Z,58.75
2019-04-27T06:59:08.858Z,48.42
2019-04-27T07:01:38.949Z,60.80
2019-04-27T07:04:08.864Z,57.43
2019-04-27T07:06:51.120Z,57.35
2019-04-27T07:09:09.629Z,58.20
2019-04-27T07:11:39.480Z,58.28
2019-04-27T07:14:11.263Z,51.23
2019-04-27T07:16:39.282Z,51.33
2019-04-27T07:19:09.412Z,55.12
2019-04-27T07:21:40.005Z,73.00
2019-04-27T07:24:09.141Z,63.02
2019-04-27T07:26:39.120Z,47.85
2019-04-27T07:29:09.580Z,60.88
2019-04-27T07:31:40.001Z,58.10
2019-04-27T07:34:09.456Z,47.58
2019-04-27T07:36:39.314Z,56.58
2019-04-27T07:39:09.653Z,54.90
2019-04-27T07:41:39.766Z,53.75
2019-04-27T07:44:29.337Z,50.73
2019-04-27T07:47:15.922Z,58.25
2019-04-27T07:49:45.381Z,52.95
2019-04-27T07:52:15.044Z,52.83
2019-04-27T07:54:45.140Z,54.60
2019-04-27T07:59:43.922Z,56.37
2019-04-27T08:02:13.849Z,46.13
2019-04-27T08:04:42.909Z,43.50
2019-04-27T08:07:11.281Z,58.15
2019-04-27T08:09:39.922Z,62.38
2019-04-27T08:12:08.183Z,50.43
2019-04-27T08:14:38.470Z,49.35
2019-04-27T08:17:06.918Z,49.42
2019-04-27T08:19:35.536Z,58.25
2019-04-27T08:22:04.494Z,50.80
2019-04-27T08:24:33.582Z,46.60
2019-04-27T08:27:39.559Z,52.38
2019-04-27T08:30:16.110Z,51.13
2019-04-27T08:32:46.162Z,54.18
2019-04-27T08:35:14.862Z,47.03
2019-04-27T08:37:43.674Z,50.38
2019-04-27T08:40:13.163Z,41.92
2019-04-27T08:42:42.232Z,51.28
2019-04-27T08:45:11.270Z,49.73
2019-04-27T08:47:41.775Z,49.15
2019-04-27T08:50:11.557Z,45.38
2019-04-27T08:52:41.868Z,46.05
2019-04-27T08:55:11.331Z,40.28
2019-04-27T08:57:41.887Z,52.80
2019-04-27T09:00:10.827Z,61.25
2019-04-27T09:02:46.591Z,52.58
2019-04-27T09:05:09.902Z,40.28
2019-04-27T09:08:04.671Z,41.37
2019-04-27T09:10:42.264Z,46.08
2019-04-27T09:13:23.547Z,42.95
2019-04-27T09:16:11.620Z,47.67
2019-04-27T09:18:41.078Z,48.65
2019-04-27T09:21:10.633Z,43.92
2019-04-27T09:23:39.565Z,40.33
2019-04-27T09:26:09.516Z,42.83
2019-04-27T09:31:09.236Z,40.40
2019-04-27T09:36:06.226Z,42.88
2019-04-27T09:38:35.821Z,36.10
2019-04-27T09:41:07.026Z,33.80
2019-04-27T09:43:36.773Z,43.20
2019-04-27T09:46:05.869Z,39.70
2019-04-27T09:48:36.163Z,37.42
2019-04-27T09:51:06.465Z,38.23
2019-04-27T09:53:36.470Z,37.03
2019-04-27T09:56:06.669Z,36.88
2019-04-27T09:58:37.496Z,36.77
2019-04-27T10:01:06.691Z,41.13
2019-04-27T10:03:36.179Z,36.03
2019-04-27T10:06:05.964Z,35.88
2019-04-27T10:08:36.669Z,32.93
2019-04-27T10:11:05.943Z,33.67
2019-04-27T10:13:36.233Z,39.48
2019-04-27T10:16:05.476Z,27.55
2019-04-27T10:18:34.054Z,40.95
2019-04-27T10:21:02.669Z,34.33
2019-04-27T10:23:31.425Z,32.28
2019-04-27T10:26:00.400Z,37.40
2019-04-27T10:28:29.745Z,36.68
2019-04-27T10:30:58.809Z,31.73
2019-04-27T10:33:29.037Z,38.02
2019-04-27T10:35:57.573Z,55.83
2019-04-27T10:38:26.166Z,37.15
2019-04-27T10:40:54.990Z,43.05
2019-04-27T10:43:23.719Z,31.30
2019-04-27T10:45:52.398Z,38.13
2019-04-27T10:48:20.806Z,34.80
2019-04-27T10:50:49.726Z,29.07
2019-04-27T10:53:18.501Z,31.68
2019-04-27T10:55:47.123Z,37.03
2019-04-27T10:58:16.952Z,31.25
2019-04-27T11:03:39.811Z,29.02
2019-04-27T11:06:27.919Z,31.52
2019-04-27T11:08:57.087Z,35.28
2019-04-27T11:11:25.923Z,33.75
2019-04-27T11:13:57.240Z,27.10
2019-04-27T11:16:26.674Z,27.90
2019-04-27T11:18:56.147Z,35.05
2019-04-27T11:21:26.170Z,38.98
2019-04-27T11:23:55.982Z,29.25
2019-04-27T11:26:26.211Z,25.43
2019-04-27T11:28:55.036Z,33.78
2019-04-27T11:31:23.338Z,31.20
2019-04-27T11:33:52.882Z,28.07
2019-04-27T11:36:30.985Z,36.83
2019-04-27T11:39:02.468Z,29.75
2019-04-27T11:41:31.190Z,31.82
2019-04-27T11:44:00.111Z,37.78
2019-04-27T11:46:29.990Z,31.40
2019-04-27T11:48:58.692Z,28.45
2019-04-27T11:51:27.035Z,31.27
2019-04-27T11:53:55.900Z,35.80
2019-04-27T11:56:24.341Z,27.55
2019-04-27T11:58:52.867Z,30.65
2019-04-27T12:01:23.703Z,34.55
2019-04-27T12:03:52.369Z,31.62
2019-04-27T12:06:20.986Z,27.10
2019-04-27T12:08:49.733Z,31.68
2019-04-27T12:11:18.755Z,35.20
2019-04-27T12:13:47.713Z,28.15
2019-04-27T12:16:17.619Z,29.67
2019-04-27T12:18:48.858Z,33.02
2019-04-27T12:21:17.217Z,37.98
2019-04-27T12:23:47.244Z,33.13
2019-04-27T12:26:30.134Z,28.27
2019-04-27T12:29:00.313Z,28.70
2019-04-27T12:31:38.043Z,27.45
2019-04-27T12:34:06.991Z,36.45
2019-04-27T12:36:35.994Z,31.07
2019-04-27T12:39:11.935Z,31.65
2019-04-27T12:41:40.927Z,35.28
2019-04-27T12:44:10.191Z,30.85
2019-04-27T12:46:38.935Z,38.05
2019-04-27T12:49:08.187Z,26.25
2019-04-27T12:51:37.348Z,32.55
2019-04-27T12:54:12.555Z,34.13
2019-04-27T12:57:16.522Z,35.30
2019-04-27T12:59:57.177Z,35.15
2019-04-27T13:02:30.532Z,32.23
2019-04-27T13:04:59.458Z,38.55
2019-04-27T13:07:28.405Z,33.20
2019-04-27T13:09:56.792Z,30.55
2019-04-27T13:12:27.325Z,42.67
2019-04-27T13:14:56.070Z,35.15
2019-04-27T13:17:26.420Z,31.27
2019-04-27T13:19:56.460Z,31.45
2019-04-27T13:22:25.413Z,31.80
2019-04-27T13:24:53.866Z,37.83
2019-04-27T13:27:22.532Z,28.23
2019-04-27T13:29:51.231Z,28.07
2019-04-27T13:32:19.587Z,31.20
2019-04-27T13:34:48.240Z,38.20
2019-04-27T13:37:55.927Z,32.33
2019-04-27T13:40:26.048Z,38.28
2019-04-27T13:43:14.411Z,33.40
2019-04-27T13:46:05.438Z,35.63
2019-04-27T13:48:53.608Z,32.38
2019-04-27T13:51:53.709Z,33.42
2019-04-27T13:54:26.484Z,37.35
2019-04-27T13:56:53.216Z,35.92
2019-04-27T13:59:21.908Z,41.48
2019-04-27T14:01:50.955Z,34.85
2019-04-27T14:04:21.716Z,35.43
2019-04-27T14:06:50.147Z,40.92
2019-04-27T14:09:18.840Z,35.85
2019-04-27T14:11:48.235Z,37.70
2019-04-27T14:14:18.429Z,49.13
2019-04-27T14:16:47.327Z,38.88
2019-04-27T14:19:15.751Z,32.63
2019-04-27T14:21:44.347Z,33.53
2019-04-27T14:24:12.950Z,38.70
2019-04-27T14:26:41.259Z,37.30
2019-04-27T14:29:09.870Z,43.13
2019-04-27T14:31:39.631Z,37.78
2019-04-27T14:34:09.104Z,33.37
2019-04-27T14:36:40.383Z,36.68
2019-04-27T14:41:40.647Z,37.90
2019-04-27T14:44:10.695Z,38.30
2019-04-27T14:46:39.612Z,36.80
2019-04-27T14:49:08.289Z,37.73
2019-04-27T14:51:39.903Z,34.60
2019-04-27T14:54:09.112Z,30.92
2019-04-27T14:56:38.666Z,30.85
2019-04-27T14:59:07.607Z,32.53
2019-04-27T15:01:39.413Z,43.83
2019-04-27T15:04:08.350Z,32.67
2019-04-27T15:06:38.934Z,38.78
2019-04-27T15:09:07.891Z,42.75
2019-04-27T15:11:36.323Z,45.17
2019-04-27T15:14:04.933Z,39.80
2019-04-27T15:16:33.570Z,38.48
2019-04-27T15:19:05.760Z,43.38
2019-04-27T15:21:38.879Z,47.25
2019-04-27T15:24:10.031Z,40.05
2019-04-27T15:26:36.067Z,37.55
2019-04-27T15:29:06.469Z,42.35
2019-04-27T15:31:40.889Z,32.13
2019-04-27T15:34:29.132Z,40.83
2019-04-27T15:37:22.256Z,38.10
2019-04-27T15:40:12.781Z,39.70
2019-04-27T15:42:51.688Z,35.73
2019-04-27T15:45:20.575Z,33.58
2019-04-27T15:50:18.261Z,34.35
2019-04-27T15:52:48.771Z,36.25
2019-04-27T15:55:31.821Z,39.50
2019-04-27T16:00:23.362Z,41.53
2019-04-27T16:02:52.777Z,38.50
2019-04-27T16:07:54.640Z,41.05
2019-04-27T16:10:23.345Z,45.43
2019-04-27T16:13:05.858Z,48.05
2019-04-27T16:15:22.470Z,41.30
2019-04-27T16:17:55.903Z,40.43
2019-04-27T16:22:52.007Z,57.98
2019-04-27T16:25:23.650Z,48.75
2019-04-27T16:27:51.538Z,40.28
2019-04-27T16:30:20.644Z,33.73
2019-04-27T16:32:49.458Z,42.50
2019-04-27T16:35:19.461Z,37.85
2019-04-27T16:38:01.461Z,39.00
2019-04-27T16:40:32.724Z,34.23
2019-04-27T16:43:02.874Z,45.43
2019-04-27T16:45:31.421Z,37.40
2019-04-27T16:48:02.079Z,42.98
2019-04-27T16:50:31.115Z,41.05
2019-04-27T16:53:01.077Z,40.12
2019-04-27T16:55:34.087Z,41.42
2019-04-27T16:58:00.521Z,36.83
2019-04-27T17:00:30.347Z,42.25
2019-04-27T17:03:02.641Z,35.87
2019-04-27T17:05:34.265Z,39.38
2019-04-27T17:08:03.961Z,39.88
2019-04-27T17:10:32.705Z,39.78
2019-04-27T17:13:06.101Z,39.50
2019-04-27T17:15:53.723Z,45.00
2019-04-27T17:18:32.494Z,37.98
2019-04-27T17:21:15.846Z,42.53
2019-04-27T17:26:09.291Z,36.85
2019-04-27T17:31:08.798Z,44.00
2019-04-27T17:33:44.629Z,41.63
2019-04-27T17:36:16.388Z,41.80
2019-04-27T17:38:47.273Z,35.40
2019-04-27T17:43:43.633Z,32.55
2019-04-27T17:46:13.205Z,39.95
2019-04-27T17:48:42.222Z,37.15
2019-04-27T17:51:10.825Z,30.48
2019-04-27T17:53:39.187Z,34.92
2019-04-27T17:56:08.579Z,39.40
2019-04-27T17:58:39.825Z,34.95
2019-04-27T18:03:38.755Z,37.60
2019-04-27T18:06:08.792Z,36.93
2019-04-27T18:11:09.417Z,37.45
2019-04-27T18:13:38.839Z,44.38
2019-04-27T18:16:09.148Z,41.00
2019-04-27T18:18:46.244Z,38.78
2019-04-27T18:21:15.076Z,38.85
2019-04-27T18:23:49.376Z,40.67
2019-04-27T18:26:46.206Z,38.60
2019-04-27T18:29:04.617Z,43.42
2019-04-27T18:31:33.256Z,48.23
2019-04-27T18:34:01.943Z,46.48
2019-04-27T18:36:30.908Z,37.75
2019-04-27T18:38:59.270Z,36.88
2019-04-27T18:41:28.748Z,37.55
2019-04-27T18:43:59.927Z,47.05
2019-04-27T18:49:13.783Z,44.60
2019-04-27T18:52:04.318Z,38.28
2019-04-27T18:54:33.136Z,36.70
2019-04-27T18:57:04.786Z,38.20
2019-04-27T18:59:33.326Z,38.40
2019-04-27T19:02:02.514Z,45.50
2019-04-27T19:04:30.973Z,34.00
2019-04-27T19:07:01.282Z,34.48
2019-04-27T19:09:31.766Z,36.98
2019-04-27T19:12:00.259Z,38.10
2019-04-27T19:14:30.362Z,36.03
2019-04-27T19:16:59.127Z,32.75
2019-04-27T19:19:28.124Z,35.25
2019-04-27T19:21:58.755Z,38.75
2019-04-27T19:24:28.195Z,41.75
2019-04-27T19:27:17.689Z,36.05
2019-04-27T19:29:43.612Z,33.78
2019-04-27T19:32:12.423Z,30.80
2019-04-27T19:34:41.667Z,38.13
2019-04-27T19:37:10.367Z,34.35
2019-04-27T19:39:39.333Z,34.70
2019-04-27T19:42:08.046Z,35.50
2019-04-27T19:44:38.812Z,35.40
2019-04-27T19:47:10.290Z,32.55
2019-04-27T19:49:38.878Z,32.45
2019-04-27T19:52:08.657Z,31.37
2019-04-27T19:54:37.519Z,32.97
2019-04-27T19:57:05.966Z,35.70
2019-04-27T19:59:40.933Z,34.20
2019-04-27T20:02:13.921Z,32.53
2019-04-27T20:04:44.651Z,35.58
2019-04-27T20:07:14.182Z,31.80
2019-04-27T20:09:50.615Z,37.78
2019-04-27T20:12:21.314Z,36.65
2019-04-27T20:14:55.980Z,35.98
2019-04-27T20:17:31.113Z,39.80
2019-04-27T20:20:00.629Z,37.13
2019-04-27T20:22:31.213Z,41.20
2019-04-27T20:25:01.932Z,39.67
2019-04-27T20:30:03.181Z,37.70
2019-04-27T20:32:31.877Z,36.33
2019-04-27T20:35:01.843Z,39.13
2019-04-27T20:37:31.403Z,43.35
2019-04-27T20:40:01.953Z,39.60
2019-04-27T20:42:31.499Z,35.70
2019-04-27T20:45:02.073Z,37.93
2019-04-27T20:47:31.830Z,41.45
2019-04-27T20:50:01.862Z,38.02
2019-04-27T20:52:58.795Z,39.48
2019-04-27T20:55:27.159Z,33.92
2019-04-27T20:58:01.826Z,33.55
2019-04-27T21:00:26.227Z,40.50
2019-04-27T21:03:14.382Z,34.27
2019-04-27T21:06:07.239Z,29.40
2019-04-27T21:08:38.009Z,40.40
2019-04-27T21:11:08.477Z,28.73
2019-04-27T21:13:37.222Z,32.42
2019-04-27T21:16:07.087Z,28.70
2019-04-27T21:18:35.815Z,28.52
2019-04-27T21:21:04.542Z,28.92
2019-04-27T21:23:33.240Z,26.82
2019-04-27T21:26:02.507Z,29.50
2019-04-27T21:28:31.674Z,26.85
2019-04-27T21:31:00.195Z,25.35
2019-04-27T21:33:31.688Z,25.60
2019-04-27T21:36:01.762Z,25.43
2019-04-27T21:38:30.189Z,24.00
2019-04-27T21:40:58.927Z,26.10
2019-04-27T21:43:27.272Z,31.15
2019-04-27T21:45:55.643Z,23.40
2019-04-27T21:48:24.468Z,28.00
2019-04-27T21:50:53.046Z,24.95
2019-04-27T21:53:41.141Z,32.53
2019-04-27T21:56:11.217Z,27.87
2019-04-27T21:58:42.056Z,33.73
2019-04-27T22:01:27.732Z,30.43
2019-04-27T22:03:56.577Z,28.05
2019-04-27T22:06:25.692Z,32.88
2019-04-27T22:08:54.735Z,31.00
2019-04-27T22:11:25.182Z,27.52
2019-04-27T22:13:53.591Z,27.27
2019-04-27T22:16:22.330Z,28.52
2019-04-27T22:18:51.918Z,31.15
2019-04-27T22:21:21.620Z,31.37
2019-04-27T22:24:01.314Z,29.25
2019-04-27T22:26:31.452Z,24.95
2019-04-27T22:29:01.611Z,32.20
2019-04-27T22:31:31.357Z,32.38
2019-04-27T22:34:01.811Z,30.88
2019-04-27T22:36:30.554Z,30.57
2019-04-27T22:39:03.221Z,34.10
2019-04-27T22:41:41.681Z,29.85
2019-04-27T22:44:27.105Z,35.65
2019-04-27T22:46:56.235Z,24.60
2019-04-27T22:49:24.953Z,33.00
2019-04-27T22:51:54.877Z,29.90
2019-04-27T22:54:23.876Z,31.65
2019-04-27T22:56:54.328Z,28.50
2019-04-27T22:59:29.222Z,29.72
2019-04-27T23:02:12.049Z,26.70
2019-04-27T23:04:44.489Z,33.40
2019-04-27T23:07:13.167Z,27.42
2019-04-27T23:09:43.390Z,28.30
2019-04-27T23:12:14.312Z,32.48
2019-04-27T23:14:42.843Z,25.10
2019-04-27T23:17:28.504Z,25.35
2019-04-27T23:19:57.119Z,27.98
2019-04-27T23:22:26.077Z,28.75
2019-04-27T23:24:54.537Z,26.62
2019-04-27T23:27:22.910Z,28.23
2019-04-27T23:29:51.642Z,31.33
2019-04-27T23:32:27.172Z,32.85
2019-04-27T23:34:55.705Z,25.68
2019-04-27T23:37:24.480Z,30.82
2019-04-27T23:39:53.112Z,33.92
2019-04-27T23:42:21.801Z,32.05
2019-04-27T23:44:50.150Z,28.80
2019-04-27T23:47:18.663Z,28.27
2019-04-27T23:49:50.859Z,31.35
2019-04-27T23:52:24.440Z,31.23
2019-04-27T23:54:52.926Z,35.60
2019-04-27T23:57:21.885Z,30.30
2019-04-27T23:59:51.508Z,31.25
